Time;durP1;ratioP1;P1;durP2;ratioP2;P2;SDS_P1;SDS_P2;PMS_P1;PMS_P2;Temp;Humidity;BMP_temperature;BMP_pressure;BME280_temperature;BME280_humidity;BME280_pressure;Samples;Min_cycle;Max_cycle;Signal;HPM_P1;HPM_P2
2023/07/14 00:01:51;;;;;;;12.52;7.40;;;19.40;99.90;;;;;;4981166;28;20045;-87
2023/07/14 00:04:28;;;;;;;11.63;7.57;;;19.30;99.90;;;;;;4997105;28;20022;-87
2023/07/14 00:06:54;;;;;;;11.50;7.20;;;19.30;99.90;;;;;;4997042;28;20033;-87
2023/07/14 00:09:28;;;;;;;11.85;7.65;;;19.30;99.90;;;;;;4996882;28;20022;-87
2023/07/14 00:11:54;;;;;;;12.07;8.20;;;19.30;99.90;;;;;;4979736;28;20069;-86
2023/07/14 00:14:20;;;;;;;11.65;7.88;;;19.30;99.90;;;;;;4997645;28;20381;-92
2023/07/14 00:16:46;;;;;;;10.27;7.32;;;19.30;99.90;;;;;;4981652;28;20145;-91
2023/07/14 00:19:14;;;;;;;11.23;7.53;;;19.30;99.90;;;;;;4997056;28;20050;-88
2023/07/14 00:21:40;;;;;;;11.52;7.30;;;19.30;99.90;;;;;;4980712;28;20053;-87
2023/07/14 00:24:18;;;;;;;14.68;7.60;;;19.30;99.90;;;;;;5004499;28;20036;-87
2023/07/14 00:26:47;;;;;;;13.13;7.15;;;19.20;99.90;;;;;;5000146;28;20038;-93
2023/07/14 00:29:25;;;;;;;8.90;6.63;;;19.30;99.90;;;;;;4998390;28;20026;-93
2023/07/14 00:31:51;;;;;;;12.27;7.20;;;19.20;99.90;;;;;;4998469;28;20052;-92
2023/07/14 00:34:29;;;;;;;10.65;6.70;;;19.20;99.90;;;;;;4997812;28;20014;-91
2023/07/14 00:36:55;;;;;;;11.20;7.63;;;19.20;99.90;;;;;;4981868;28;20026;-92
2023/07/14 00:39:20;;;;;;;9.45;6.82;;;19.20;99.90;;;;;;4981591;28;20174;-92
2023/07/14 00:41:47;;;;;;;14.25;6.88;;;19.20;99.90;;;;;;4981405;28;20029;-93
2023/07/14 00:44:16;;;;;;;12.52;7.07;;;19.20;99.90;;;;;;4997805;28;20542;-93
2023/07/14 00:46:44;;;;;;;8.93;6.60;;;19.20;99.90;;;;;;4997560;28;20492;-93
2023/07/14 00:49:21;;;;;;;9.20;6.05;;;19.20;99.90;;;;;;4999414;28;20117;-93
2023/07/14 00:51:48;;;;;;;13.27;7.15;;;19.20;99.90;;;;;;5001437;28;20149;-92
2023/07/14 00:54:29;;;;;;;10.68;6.43;;;19.20;99.90;;;;;;5001589;28;20036;-92
2023/07/14 00:56:56;;;;;;;10.45;6.28;;;19.20;99.90;;;;;;4985039;28;20058;-92
2023/07/14 00:59:33;;;;;;;12.43;6.20;;;19.10;99.90;;;;;;4985402;28;20128;-92
2023/07/14 01:02:11;;;;;;;9.23;5.95;;;19.10;99.90;;;;;;5001025;28;20032;-92
2023/07/14 01:04:39;;;;;;;11.45;5.72;;;19.10;99.90;;;;;;5001137;28;20065;-92
2023/07/14 01:07:05;;;;;;;9.48;5.88;;;19.00;99.90;;;;;;4984854;28;20121;-91
2023/07/14 01:09:32;;;;;;;7.97;5.85;;;19.00;99.90;;;;;;4970332;28;20042;-91
2023/07/14 01:12:01;;;;;;;9.43;5.60;;;19.00;99.90;;;;;;4971108;28;20531;-91
2023/07/14 01:14:31;;;;;;;11.15;6.10;;;19.00;99.90;;;;;;5020917;28;20060;-92
2023/07/14 01:16:58;;;;;;;10.27;5.53;;;19.00;99.90;;;;;;5001949;28;20072;-92
2023/07/14 01:19:37;;;;;;;9.10;6.10;;;18.90;99.90;;;;;;5001528;28;20042;-92
2023/07/14 01:22:20;;;;;;;10.55;6.32;;;18.90;99.90;;;;;;5001639;28;20030;-92
2023/07/14 01:24:58;;;;;;;13.95;6.57;;;18.90;99.90;;;;;;5001549;28;20037;-86
2023/07/14 01:27:29;;;;;;;9.15;6.40;;;18.90;99.90;;;;;;5000357;28;20026;-91
2023/07/14 01:29:56;;;;;;;9.70;6.55;;;18.80;99.90;;;;;;4969989;28;20076;-92
2023/07/14 01:32:23;;;;;;;10.50;7.30;;;18.80;99.90;;;;;;4984309;28;20080;-92
2023/07/14 01:34:49;;;;;;;11.38;6.35;;;18.70;99.90;;;;;;4984441;28;20018;-90
2023/07/14 01:37:20;;;;;;;10.73;6.60;;;18.70;99.90;;;;;;4990510;28;20018;-88
2023/07/14 01:39:51;;;;;;;11.05;6.88;;;18.70;99.90;;;;;;5016888;28;20018;-87
2023/07/14 01:42:18;;;;;;;9.63;6.63;;;18.70;99.90;;;;;;5014243;28;20026;-87
2023/07/14 01:44:48;;;;;;;10.13;6.15;;;18.60;99.90;;;;;;4996724;28;20037;-87
2023/07/14 01:47:15;;;;;;;12.63;6.88;;;18.60;99.90;;;;;;5007653;28;20499;-92
2023/07/14 01:49:46;;;;;;;12.75;7.55;;;18.60;99.90;;;;;;5008596;28;20053;-92
2023/07/14 01:52:30;;;;;;;11.98;7.55;;;18.60;99.90;;;;;;5006076;28;20468;-93
2023/07/14 01:55:05;;;;;;;10.88;6.68;;;18.60;99.90;;;;;;5000300;28;20034;-92
2023/07/14 01:57:34;;;;;;;12.25;6.95;;;18.60;99.90;;;;;;5002938;28;20026;-90
2023/07/14 02:00:09;;;;;;;9.77;6.95;;;18.60;99.90;;;;;;4999472;28;20431;-86
2023/07/14 02:02:37;;;;;;;12.30;6.88;;;18.60;99.90;;;;;;4999341;28;20451;-86
2023/07/14 02:05:11;;;;;;;10.23;6.78;;;18.60;99.90;;;;;;4999537;28;20038;-86
2023/07/14 02:07:37;;;;;;;9.45;6.75;;;18.50;99.90;;;;;;4998937;28;20033;-86
2023/07/14 02:10:02;;;;;;;9.80;6.65;;;18.50;99.90;;;;;;4983314;28;20372;-86
2023/07/14 02:12:34;;;;;;;12.60;7.70;;;18.50;99.90;;;;;;4982564;28;20503;-85
2023/07/14 02:15:10;;;;;;;10.65;6.70;;;18.50;99.90;;;;;;4999824;28;20030;-91
2023/07/14 02:17:37;;;;;;;12.27;6.50;;;18.50;99.90;;;;;;5019122;28;20476;-91
2023/07/14 02:20:11;;;;;;;10.05;6.15;;;18.40;99.90;;;;;;4985162;28;20061;-90
2023/07/14 02:22:37;;;;;;;11.35;6.45;;;18.40;99.90;;;;;;5002574;28;20028;-86
2023/07/14 02:25:07;;;;;;;9.70;6.90;;;18.40;99.90;;;;;;4987746;28;20152;-87
2023/07/14 02:27:33;;;;;;;9.60;6.30;;;18.30;99.90;;;;;;5002783;28;20030;-87
2023/07/14 02:30:01;;;;;;;11.70;7.10;;;18.30;99.90;;;;;;4989898;28;20091;-87
2023/07/14 02:32:32;;;;;;;13.15;6.20;;;18.30;99.90;;;;;;4987225;28;20030;-92
2023/07/14 02:35:15;;;;;;;15.57;7.05;;;18.20;99.90;;;;;;5000133;28;20468;-87
2023/07/14 02:38:04;;;;;;;9.73;6.15;;;18.20;99.90;;;;;;4999008;28;20076;-88
2023/07/14 02:40:37;;;;;;;13.57;6.90;;;18.20;99.90;;;;;;4984140;28;20030;-88
2023/07/14 02:43:13;;;;;;;9.43;5.70;;;18.10;99.90;;;;;;5017543;28;20022;-93
2023/07/14 02:46:15;;;;;;;10.73;6.10;;;18.10;99.90;;;;;;5001696;28;20022;-93
2023/07/14 02:48:44;;;;;;;9.45;6.15;;;18.10;99.90;;;;;;4994649;28;20033;-93
2023/07/14 02:51:22;;;;;;;8.95;6.53;;;18.10;99.90;;;;;;4999207;28;20453;-94
2023/07/14 02:53:54;;;;;;;9.68;6.75;;;18.00;99.90;;;;;;4967059;28;20058;-93
2023/07/14 02:56:20;;;;;;;12.18;6.55;;;17.90;99.90;;;;;;4983604;28;20480;-92
2023/07/14 02:58:49;;;;;;;11.20;7.10;;;17.90;99.90;;;;;;4983551;28;20037;-93
2023/07/14 03:01:16;;;;;;;11.05;6.97;;;17.90;99.90;;;;;;4983545;28;20018;-93
2023/07/14 03:03:44;;;;;;;11.30;6.15;;;17.90;99.90;;;;;;4998681;28;20069;-88
2023/07/14 03:06:13;;;;;;;10.88;6.50;;;17.90;99.90;;;;;;4982330;28;20361;-92
2023/07/14 03:08:39;;;;;;;11.73;7.30;;;17.90;99.90;;;;;;4999060;28;20026;-93
2023/07/14 03:11:05;;;;;;;12.55;6.47;;;17.90;99.90;;;;;;4997475;28;20022;-92
2023/07/14 03:13:31;;;;;;;11.55;6.40;;;17.80;99.90;;;;;;4998613;28;20022;-92
2023/07/14 03:15:57;;;;;;;11.57;7.10;;;17.90;99.90;;;;;;4998799;28;20034;-92
2023/07/14 03:18:23;;;;;;;13.65;8.20;;;17.80;99.90;;;;;;4967378;28;20041;-93
2023/07/14 03:20:58;;;;;;;14.15;7.63;;;17.80;99.90;;;;;;4982999;28;20042;-92
2023/07/14 03:23:24;;;;;;;10.70;7.63;;;17.80;99.90;;;;;;5000238;28;20053;-93
2023/07/14 03:26:05;;;;;;;11.18;7.88;;;17.80;99.90;;;;;;4983148;28;20034;-92
2023/07/14 03:28:32;;;;;;;13.70;8.50;;;17.70;99.90;;;;;;4999529;28;20069;-92
2023/07/14 03:30:58;;;;;;;11.07;8.32;;;17.70;99.90;;;;;;5017498;28;20077;-91
2023/07/14 03:33:24;;;;;;;11.80;8.20;;;17.70;99.90;;;;;;4999994;28;20046;-87
2023/07/14 03:35:50;;;;;;;10.02;7.47;;;17.70;99.90;;;;;;4966607;28;20026;-87
2023/07/14 03:38:16;;;;;;;11.90;8.57;;;17.80;99.90;;;;;;4983066;28;20087;-87
2023/07/14 03:40:41;;;;;;;11.18;8.70;;;17.70;99.90;;;;;;4982752;28;20477;-87
2023/07/14 03:43:07;;;;;;;14.35;8.45;;;17.80;99.90;;;;;;4966088;28;20083;-87
2023/07/14 03:45:34;;;;;;;13.10;9.13;;;17.80;99.90;;;;;;4966139;28;20038;-87
2023/07/14 03:48:03;;;;;;;12.70;8.27;;;17.80;99.90;;;;;;4999374;28;20061;-88
2023/07/14 03:50:29;;;;;;;13.98;9.15;;;17.80;99.90;;;;;;4983772;28;20030;-87
2023/07/14 03:52:55;;;;;;;14.60;9.15;;;17.80;99.90;;;;;;4998614;28;20030;-87
2023/07/14 03:55:20;;;;;;;15.48;8.50;;;17.80;99.90;;;;;;4982312;28;20026;-88
2023/07/14 03:57:46;;;;;;;19.23;8.93;;;17.80;99.90;;;;;;4981331;28;20392;-87
2023/07/14 04:00:17;;;;;;;15.68;9.13;;;17.80;99.90;;;;;;4969115;28;20022;-87
2023/07/14 04:02:44;;;;;;;13.98;8.00;;;17.70;99.90;;;;;;4985405;28;20038;-87
2023/07/14 04:05:11;;;;;;;13.95;8.27;;;17.70;99.90;;;;;;5001410;28;20026;-87
2023/07/14 04:07:37;;;;;;;14.10;8.52;;;17.70;99.90;;;;;;5001283;28;20112;-87
2023/07/14 04:10:09;;;;;;;13.45;8.05;;;17.70;99.90;;;;;;5000188;28;20024;-87
2023/07/14 04:12:35;;;;;;;12.23;7.90;;;17.70;99.90;;;;;;4984710;28;20029;-91
2023/07/14 04:15:01;;;;;;;15.15;8.35;;;17.70;99.90;;;;;;4998566;28;20056;-92
2023/07/14 04:17:29;;;;;;;14.43;9.25;;;17.70;99.90;;;;;;4998745;28;20025;-92
2023/07/14 04:19:55;;;;;;;12.15;8.68;;;17.70;99.90;;;;;;4998586;28;20042;-88
2023/07/14 04:22:22;;;;;;;11.70;8.07;;;17.70;99.90;;;;;;4996482;28;20027;-88
2023/07/14 04:24:47;;;;;;;13.25;8.30;;;17.70;99.90;;;;;;4980871;28;20022;-88
2023/07/14 04:27:13;;;;;;;12.60;8.52;;;17.70;99.90;;;;;;4997567;28;20038;-87
2023/07/14 04:29:40;;;;;;;14.05;8.05;;;17.70;99.90;;;;;;4981929;28;20056;-92
2023/07/14 04:32:07;;;;;;;13.77;7.95;;;17.80;99.90;;;;;;5002342;28;20431;-91
2023/07/14 04:34:33;;;;;;;13.00;8.77;;;17.80;99.90;;;;;;5016612;28;20045;-92
2023/07/14 04:37:07;;;;;;;12.98;8.50;;;17.80;99.90;;;;;;4998337;28;20053;-92
2023/07/14 04:39:45;;;;;;;12.25;8.13;;;17.80;99.90;;;;;;4981858;28;20037;-92
2023/07/14 04:42:11;;;;;;;16.23;9.38;;;17.80;99.90;;;;;;4982296;28;20104;-92
2023/07/14 04:44:37;;;;;;;12.50;8.02;;;17.80;99.90;;;;;;4981951;28;20417;-89
2023/07/14 04:47:24;;;;;;;12.93;8.15;;;17.80;99.90;;;;;;4980642;28;20495;-87
2023/07/14 04:49:50;;;;;;;17.77;9.25;;;17.90;99.90;;;;;;4996719;28;20026;-88
2023/07/14 04:52:16;;;;;;;17.55;8.75;;;17.90;99.90;;;;;;4980994;28;20084;-88
2023/07/14 04:54:42;;;;;;;12.75;8.50;;;17.90;99.90;;;;;;4964393;28;20501;-88
2023/07/14 04:57:08;;;;;;;13.95;8.18;;;17.90;99.90;;;;;;4980181;28;20033;-87
2023/07/14 04:59:35;;;;;;;13.15;7.75;;;17.90;99.90;;;;;;5014343;28;20030;-87
2023/07/14 05:02:02;;;;;;;18.38;8.73;;;17.90;99.90;;;;;;4980808;28;20104;-93
2023/07/14 05:04:29;;;;;;;12.93;8.68;;;17.90;99.90;;;;;;4997392;28;20046;-93
2023/07/14 05:06:55;;;;;;;14.32;8.60;;;17.90;99.90;;;;;;4997784;28;20030;-93
2023/07/14 05:09:23;;;;;;;13.25;8.07;;;17.90;99.90;;;;;;4981999;28;20049;-89
2023/07/14 05:11:48;;;;;;;15.60;8.05;;;17.90;99.90;;;;;;4997288;28;20037;-90
2023/07/14 05:14:14;;;;;;;12.73;7.78;;;17.90;99.90;;;;;;4997100;28;20022;-89
2023/07/14 05:16:40;;;;;;;13.70;7.32;;;17.90;99.90;;;;;;4964257;28;20025;-87
2023/07/14 05:19:05;;;;;;;13.55;7.93;;;17.90;99.90;;;;;;4976897;28;20054;-92
2023/07/14 05:21:31;;;;;;;11.25;7.70;;;17.90;99.90;;;;;;4945644;28;20129;-92
2023/07/14 05:23:57;;;;;;;13.43;7.82;;;17.90;99.90;;;;;;4979403;28;20026;-92
2023/07/14 05:26:24;;;;;;;13.00;7.82;;;17.90;99.90;;;;;;4979487;28;20026;-92
2023/07/14 05:28:50;;;;;;;13.00;7.35;;;17.90;99.90;;;;;;4966206;28;20026;-92
2023/07/14 05:31:15;;;;;;;14.02;7.97;;;17.90;99.90;;;;;;4981564;28;20053;-92
2023/07/14 05:33:41;;;;;;;18.27;8.60;;;17.90;99.90;;;;;;4997519;28;20109;-92
2023/07/14 05:36:07;;;;;;;13.65;8.93;;;17.90;99.90;;;;;;4964986;28;20478;-88
2023/07/14 05:38:33;;;;;;;14.98;9.73;;;18.00;99.90;;;;;;4981245;28;20089;-88
2023/07/14 05:40:59;;;;;;;13.10;9.75;;;17.90;99.90;;;;;;4981015;28;20117;-88
2023/07/14 05:43:26;;;;;;;15.27;9.73;;;18.00;99.90;;;;;;4997831;28;20026;-87
2023/07/14 05:45:52;;;;;;;17.60;10.13;;;18.00;99.90;;;;;;4999017;28;20105;-88
2023/07/14 05:48:18;;;;;;;16.42;9.52;;;18.00;99.90;;;;;;4980834;28;20065;-88
2023/07/14 05:50:45;;;;;;;13.25;10.18;;;18.00;99.90;;;;;;4953330;28;20457;-88
2023/07/14 05:53:13;;;;;;;16.60;9.48;;;18.00;99.90;;;;;;4982407;28;20042;-88
2023/07/14 05:55:39;;;;;;;14.50;9.82;;;18.00;99.90;;;;;;4964827;28;20018;-88
2023/07/14 05:58:09;;;;;;;15.65;10.13;;;18.00;99.90;;;;;;4954372;28;20029;-86
2023/07/14 06:00:38;;;;;;;15.85;9.68;;;18.00;99.90;;;;;;4989378;28;20023;-87
2023/07/14 06:03:13;;;;;;;11.02;8.43;;;18.00;99.90;;;;;;4984387;28;20029;-88
2023/07/14 06:05:40;;;;;;;11.90;8.18;;;18.00;99.90;;;;;;4982234;28;20052;-88
2023/07/14 06:08:05;;;;;;;15.13;8.13;;;18.00;99.90;;;;;;4980853;28;20366;-88
2023/07/14 06:10:33;;;;;;;10.38;6.80;;;18.00;99.90;;;;;;4980635;28;20117;-88
2023/07/14 06:12:59;;;;;;;12.50;6.82;;;18.00;99.90;;;;;;4963262;28;20026;-88
2023/07/14 06:15:25;;;;;;;11.27;6.82;;;18.00;99.90;;;;;;4964625;28;20034;-88
2023/07/14 06:17:50;;;;;;;12.07;6.10;;;18.00;99.90;;;;;;4980046;28;20433;-92
2023/07/14 06:20:22;;;;;;;12.75;6.25;;;18.00;99.90;;;;;;4977684;28;20038;-91
2023/07/14 06:22:54;;;;;;;11.55;5.93;;;18.00;99.90;;;;;;5000479;28;20053;-91
2023/07/14 06:25:20;;;;;;;7.07;4.95;;;18.00;99.90;;;;;;5003208;28;20033;-88
2023/07/14 06:27:45;;;;;;;13.30;5.80;;;18.00;99.90;;;;;;4997852;28;20030;-88
2023/07/14 06:30:11;;;;;;;10.20;5.10;;;18.00;99.90;;;;;;5007202;28;20022;-92
2023/07/14 06:32:38;;;;;;;11.63;5.47;;;18.00;99.90;;;;;;4999610;28;20018;-89
2023/07/14 06:35:06;;;;;;;12.27;5.50;;;18.00;99.90;;;;;;4967481;28;20030;-89
2023/07/14 06:37:32;;;;;;;12.38;5.72;;;18.10;99.90;;;;;;4983689;28;20018;-89
2023/07/14 06:39:57;;;;;;;9.27;5.30;;;18.10;99.90;;;;;;4999518;28;20018;-89
2023/07/14 06:42:24;;;;;;;19.33;5.95;;;18.20;99.90;;;;;;4983159;28;20026;-90
2023/07/14 06:44:50;;;;;;;23.50;5.63;;;18.20;99.90;;;;;;4983213;28;20030;-88
2023/07/14 06:47:16;;;;;;;12.35;5.65;;;18.30;99.90;;;;;;4983034;28;20049;-90
2023/07/14 06:49:42;;;;;;;10.07;5.53;;;18.30;99.90;;;;;;4982783;28;20029;-90
2023/07/14 06:52:08;;;;;;;10.80;5.72;;;18.30;99.90;;;;;;4999889;28;20022;-90
2023/07/14 06:54:34;;;;;;;12.30;6.70;;;18.40;99.90;;;;;;4998436;28;20385;-91
2023/07/14 06:57:00;;;;;;;14.68;7.22;;;18.40;99.90;;;;;;4982585;28;20029;-90
2023/07/14 06:59:25;;;;;;;13.45;6.97;;;18.40;99.90;;;;;;4999261;28;20026;-93
2023/07/14 07:01:51;;;;;;;11.85;7.22;;;18.40;99.90;;;;;;4979650;28;20040;-90
2023/07/14 07:04:17;;;;;;;11.02;6.35;;;18.40;99.90;;;;;;4966650;28;20041;-91
2023/07/14 07:06:43;;;;;;;11.82;6.10;;;18.50;99.90;;;;;;4983782;28;20037;-91
2023/07/14 07:09:09;;;;;;;9.70;6.53;;;18.40;99.90;;;;;;4967505;28;20026;-91
2023/07/14 07:11:34;;;;;;;9.90;6.65;;;18.50;99.90;;;;;;4967290;28;20030;-91
2023/07/14 07:14:00;;;;;;;11.00;6.18;;;18.50;99.90;;;;;;5000072;28;20756;-92
2023/07/14 07:16:26;;;;;;;10.45;6.45;;;18.50;99.90;;;;;;4982986;28;20132;-91
2023/07/14 07:18:51;;;;;;;9.32;6.15;;;18.40;99.90;;;;;;4980823;28;20027;-91
2023/07/14 07:21:17;;;;;;;11.38;7.03;;;18.50;99.90;;;;;;4964385;28;20512;-91
2023/07/14 07:23:43;;;;;;;10.48;6.65;;;18.50;99.90;;;;;;4980466;28;20037;-91
2023/07/14 07:26:09;;;;;;;16.55;6.05;;;18.60;99.90;;;;;;4983178;28;20358;-91
2023/07/14 07:28:35;;;;;;;11.32;6.25;;;18.60;99.90;;;;;;5000151;28;20026;-91
2023/07/14 07:31:14;;;;;;;11.52;6.28;;;18.70;99.90;;;;;;4987509;28;20033;-93
2023/07/14 07:33:45;;;;;;;9.27;5.82;;;18.70;99.90;;;;;;5000724;28;20491;-91
2023/07/14 07:36:15;;;;;;;9.52;5.95;;;18.80;99.90;;;;;;4982681;28;20084;-91
2023/07/14 07:38:47;;;;;;;11.95;5.43;;;18.80;99.90;;;;;;4982153;28;20030;-91
2023/07/14 07:41:19;;;;;;;8.73;4.47;;;18.90;99.90;;;;;;4998169;28;20033;-91
2023/07/14 07:43:45;;;;;;;7.18;4.40;;;18.90;99.90;;;;;;4998707;28;20045;-91
2023/07/14 07:46:11;;;;;;;8.80;3.83;;;19.00;99.90;;;;;;4998022;28;20085;-92
2023/07/14 07:48:37;;;;;;;8.73;3.60;;;19.00;99.90;;;;;;4997989;28;20040;-89
2023/07/14 07:51:06;;;;;;;5.68;2.85;;;19.10;99.90;;;;;;4980714;28;20026;-88
2023/07/14 07:53:32;;;;;;;6.85;3.20;;;19.10;99.90;;;;;;4969310;28;20109;-88
2023/07/14 07:55:59;;;;;;;9.48;3.17;;;19.10;99.90;;;;;;4978262;28;20109;-92
2023/07/14 07:58:25;;;;;;;6.40;2.67;;;19.20;99.90;;;;;;4962024;28;20081;-91
2023/07/14 08:01:03;;;;;;;6.53;2.90;;;19.30;99.90;;;;;;4979933;28;20033;-92
2023/07/14 08:03:29;;;;;;;5.90;2.63;;;19.30;99.90;;;;;;4997470;28;20479;-91
2023/07/14 08:06:02;;;;;;;6.60;3.05;;;19.40;99.90;;;;;;4997189;28;20021;-87
2023/07/14 08:08:29;;;;;;;13.32;3.40;;;19.40;99.90;;;;;;4984487;28;20033;-86
2023/07/14 08:10:55;;;;;;;7.72;3.70;;;19.50;99.90;;;;;;4998344;28;20495;-91
2023/07/14 08:13:24;;;;;;;8.93;4.30;;;19.60;99.90;;;;;;4998181;28;20030;-91
2023/07/14 08:15:51;;;;;;;11.35;4.07;;;19.70;99.90;;;;;;4984081;28;20022;-90
2023/07/14 08:18:18;;;;;;;7.18;3.90;;;19.70;99.90;;;;;;4982366;28;20101;-92
2023/07/14 08:20:44;;;;;;;7.85;3.80;;;19.80;99.90;;;;;;4998119;28;20054;-91
2023/07/14 08:23:13;;;;;;;6.90;3.58;;;19.80;99.90;;;;;;4966174;28;20072;-91
2023/07/14 08:25:40;;;;;;;8.77;4.27;;;19.90;99.90;;;;;;4997342;28;20080;-92
2023/07/14 08:28:06;;;;;;;8.82;3.58;;;20.00;99.90;;;;;;4994996;28;20026;-91
2023/07/14 08:30:31;;;;;;;8.43;4.15;;;20.00;99.90;;;;;;4963178;28;20085;-91
2023/07/14 08:32:58;;;;;;;7.93;4.03;;;20.00;99.90;;;;;;4961517;28;20042;-90
2023/07/14 08:35:29;;;;;;;7.00;3.50;;;20.10;99.90;;;;;;4971321;28;20076;-91
2023/07/14 08:37:55;;;;;;;6.25;3.03;;;20.10;99.90;;;;;;4997114;28;20026;-91
2023/07/14 08:40:35;;;;;;;8.50;3.22;;;20.10;99.90;;;;;;4965180;28;20030;-91
2023/07/14 08:43:19;;;;;;;9.60;4.10;;;20.10;99.90;;;;;;5014130;28;20089;-92
2023/07/14 08:45:54;;;;;;;8.30;3.05;;;20.10;99.90;;;;;;4997285;28;20058;-91
2023/07/14 08:48:41;;;;;;;7.35;2.90;;;20.10;99.90;;;;;;4997403;28;20061;-91
2023/07/14 08:51:20;;;;;;;6.57;2.75;;;20.10;99.90;;;;;;4997226;28;20028;-91
2023/07/14 08:54:01;;;;;;;6.00;2.83;;;20.10;99.90;;;;;;4997102;28;20469;-91
2023/07/14 08:56:30;;;;;;;;;;;20.10;99.90;;;;;;4997049;28;20499;-88
2023/07/14 08:58:55;;;;;;;8.32;2.53;;;20.10;99.90;;;;;;4996205;28;19956;-87
2023/07/14 09:01:50;;;;;;;7.30;3.20;;;20.10;99.90;;;;;;4980638;28;20030;-87
2023/07/14 09:04:23;;;;;;;7.07;3.15;;;20.10;99.90;;;;;;4996101;28;20026;-88
2023/07/14 09:06:49;;;;;;;6.55;2.78;;;20.10;99.90;;;;;;4996099;28;20073;-88
2023/07/14 09:09:26;;;;;;;9.15;2.80;;;20.10;99.90;;;;;;4996758;28;20030;-88
2023/07/14 09:11:58;;;;;;;8.18;2.90;;;20.20;99.90;;;;;;5000209;28;20109;-88
2023/07/14 09:14:31;;;;;;;7.05;3.20;;;20.20;99.90;;;;;;5000382;28;20049;-88
2023/07/14 09:17:09;;;;;;;6.05;3.15;;;20.30;99.90;;;;;;5000016;28;20496;-88
2023/07/14 09:19:41;;;;;;;8.18;3.35;;;20.40;99.90;;;;;;5000079;28;20500;-88
2023/07/14 09:22:33;;;;;;;8.30;3.40;;;20.50;99.90;;;;;;4999880;28;20493;-88
2023/07/14 09:25:41;;;;;;;5.25;2.70;;;20.50;99.90;;;;;;4999735;28;20037;-87
2023/07/14 09:28:22;;;;;;;6.30;3.30;;;20.50;99.90;;;;;;4984171;28;20034;-92
2023/07/14 09:30:49;;;;;;;9.85;3.25;;;20.60;99.90;;;;;;5000422;28;20030;-90
2023/07/14 09:33:18;;;;;;;5.38;2.90;;;20.60;99.90;;;;;;4968309;28;20085;-91
2023/07/14 09:35:45;;;;;;;6.15;2.92;;;20.60;99.90;;;;;;5000953;28;20072;-93
2023/07/14 09:38:26;;;;;;;6.50;2.70;;;20.70;99.90;;;;;;4968495;28;20483;-91
2023/07/14 09:40:59;;;;;;;7.95;3.60;;;20.70;99.80;;;;;;5000643;28;20061;-91
2023/07/14 09:43:25;;;;;;;6.35;2.90;;;20.80;99.70;;;;;;4984221;28;20026;-91
2023/07/14 09:45:54;;;;;;;8.30;3.15;;;20.80;99.80;;;;;;5000553;28;20114;-94
2023/07/14 09:48:33;;;;;;;5.22;2.60;;;20.80;99.90;;;;;;5001164;28;20018;-92
2023/07/14 09:51:10;;;;;;;7.47;2.97;;;20.90;99.90;;;;;;4999540;28;20025;-91
2023/07/14 09:53:37;;;;;;;5.68;2.83;;;21.00;99.90;;;;;;5001276;28;20029;-93
2023/07/14 09:56:23;;;;;;;7.93;3.22;;;21.00;99.80;;;;;;5001010;28;20030;-92
2023/07/14 09:59:02;;;;;;;9.80;2.90;;;21.10;99.70;;;;;;5000396;28;20014;-92
2023/07/14 10:01:30;;;;;;;7.55;2.97;;;21.10;99.90;;;;;;5000489;28;20072;-91
2023/07/14 10:04:08;;;;;;;6.63;2.95;;;21.20;99.90;;;;;;4954129;28;20034;-91
2023/07/14 10:06:33;;;;;;;4.30;2.20;;;21.20;98.90;;;;;;4991657;28;20030;-91
2023/07/14 10:09:25;;;;;;;7.32;3.60;;;21.30;99.60;;;;;;4990872;28;20029;-88
2023/07/14 10:11:52;;;;;;;6.93;2.85;;;21.40;99.20;;;;;;4979373;28;20125;-89
2023/07/14 10:14:40;;;;;;;4.45;2.70;;;21.40;99.20;;;;;;4979847;28;20025;-89
2023/07/14 10:17:25;;;;;;;4.47;2.30;;;21.50;99.00;;;;;;4979740;28;20037;-89
2023/07/14 10:19:51;;;;;;;9.50;2.45;;;21.50;99.10;;;;;;4963432;28;20132;-89
2023/07/14 10:22:31;;;;;;;7.10;2.88;;;21.60;98.80;;;;;;4963353;28;20070;-89
2023/07/14 10:24:59;;;;;;;6.30;2.30;;;21.60;98.40;;;;;;4980171;28;20022;-89
2023/07/14 10:27:27;;;;;;;7.30;2.80;;;21.60;98.90;;;;;;4972867;28;20125;-89
2023/07/14 10:30:33;;;;;;;9.15;3.22;;;21.60;99.00;;;;;;4979794;28;20026;-89
2023/07/14 10:33:01;;;;;;;6.88;2.90;;;21.70;98.30;;;;;;4996074;28;20022;-91
2023/07/14 10:35:29;;;;;;;5.57;2.78;;;21.80;98.70;;;;;;4986093;28;20014;-88
2023/07/14 10:38:19;;;;;;;5.20;2.53;;;21.80;98.30;;;;;;5002580;28;20025;-90
2023/07/14 10:40:57;;;;;;;4.80;2.70;;;21.90;98.30;;;;;;5002360;28;20036;-90
2023/07/14 10:43:36;;;;;;;6.15;2.72;;;21.90;98.40;;;;;;5019275;28;20034;-90
2023/07/14 10:46:09;;;;;;;5.43;2.75;;;21.90;96.40;;;;;;5016088;28;20011;-93
2023/07/14 10:48:44;;;;;;;6.97;2.65;;;21.90;97.10;;;;;;4997547;28;20046;-93
2023/07/14 10:51:22;;;;;;;6.20;2.60;;;21.90;96.30;;;;;;4994605;28;20038;-92
2023/07/14 10:54:16;;;;;;;7.28;2.35;;;21.90;96.70;;;;;;4978599;28;20046;-87
2023/07/14 10:57:05;;;;;;;8.73;2.20;;;21.90;97.20;;;;;;4979082;28;20023;-91
2023/07/14 10:59:40;;;;;;;5.72;2.95;;;21.90;96.00;;;;;;4979090;28;20021;-93
2023/07/14 11:02:28;;;;;;;6.45;2.47;;;21.90;96.30;;;;;;4978945;28;20069;-92
2023/07/14 11:05:11;;;;;;;5.47;2.30;;;21.90;96.00;;;;;;4984503;28;20027;-88
2023/07/14 11:07:37;;;;;;;5.80;2.60;;;21.90;96.40;;;;;;4976772;28;20050;-87
2023/07/14 11:10:14;;;;;;;5.35;2.60;;;22.00;96.50;;;;;;4995874;28;20038;-87
2023/07/14 11:12:53;;;;;;;5.15;2.63;;;22.00;96.70;;;;;;4978242;28;20026;-87
2023/07/14 11:15:24;;;;;;;5.65;2.70;;;22.10;96.40;;;;;;4995649;28;20022;-87
2023/07/14 11:18:08;;;;;;;4.40;2.33;;;22.10;96.60;;;;;;4978062;28;20045;-89
2023/07/14 11:20:43;;;;;;;5.47;2.70;;;22.10;96.10;;;;;;4977716;28;20046;-87
2023/07/14 11:23:51;;;;;;;5.55;2.65;;;22.20;96.30;;;;;;4978356;28;20036;-88
2023/07/14 11:26:33;;;;;;;8.05;3.05;;;22.20;96.40;;;;;;4979037;28;20026;-88
2023/07/14 11:29:10;;;;;;;7.43;2.60;;;22.20;96.10;;;;;;4999664;28;20499;-89
2023/07/14 11:31:54;;;;;;;4.80;2.67;;;22.20;96.00;;;;;;4996081;28;20068;-88
2023/07/14 11:34:35;;;;;;;6.95;2.97;;;22.20;96.40;;;;;;4978576;28;20347;-89
2023/07/14 11:37:07;;;;;;;;;;;22.30;96.30;;;;;;4995104;28;20034;-88
2023/07/14 11:39:39;;;;;;;7.85;2.80;;;22.30;96.10;;;;;;4978170;28;20389;-88
2023/07/14 11:42:27;;;;;;;7.45;2.50;;;22.30;96.40;;;;;;4996565;28;20029;-88
2023/07/14 11:44:55;;;;;;;5.53;2.70;;;22.40;97.00;;;;;;4997335;28;20022;-88
2023/07/14 11:47:28;;;;;;;6.88;2.42;;;22.40;96.70;;;;;;4997080;28;20026;-88
2023/07/14 11:49:55;;;;;;;5.68;2.38;;;22.40;96.50;;;;;;4997308;28;20045;-88
2023/07/14 11:52:26;;;;;;;5.70;2.53;;;22.40;96.30;;;;;;4996843;28;20053;-88
2023/07/14 11:54:52;;;;;;;5.72;2.60;;;22.50;96.50;;;;;;4993525;28;20022;-88
2023/07/14 11:57:20;;;;;;;7.20;3.00;;;22.50;96.80;;;;;;4977691;28;20113;-87
2023/07/14 12:00:14;;;;;;;6.80;3.03;;;22.60;96.70;;;;;;4977873;28;20033;-88
2023/07/14 12:02:46;;;;;;;5.88;2.78;;;22.60;96.30;;;;;;4978033;28;20109;-91
2023/07/14 12:05:34;;;;;;;8.27;2.80;;;22.60;96.00;;;;;;4978105;28;20022;-90
2023/07/14 12:08:07;;;;;;;5.63;2.53;;;22.50;96.10;;;;;;4997333;28;20025;-92
2023/07/14 12:10:39;;;;;;;4.72;2.78;;;22.60;96.50;;;;;;4997636;28;20231;-93
2023/07/14 12:17:04;;;;;;;5.68;2.60;;;22.60;96.50;;;;;;5012846;28;20056;-93
2023/07/14 12:19:54;;;;;;;6.63;2.58;;;22.60;96.60;;;;;;4995993;28;20026;-92
2023/07/14 12:22:42;;;;;;;4.60;2.47;;;22.60;96.00;;;;;;4978571;28;20050;-93
2023/07/14 12:25:18;;;;;;;4.93;2.50;;;22.70;96.20;;;;;;4995726;28;20057;-93
2023/07/14 12:27:49;;;;;;;6.68;2.78;;;22.80;96.00;;;;;;4979089;28;20027;-93
2023/07/14 12:30:25;;;;;;;5.82;2.47;;;22.90;96.10;;;;;;4979370;28;20030;-93
2023/07/14 12:33:01;;;;;;;4.70;2.33;;;22.90;96.40;;;;;;4977812;28;20053;-88
2023/07/14 12:35:30;;;;;;;6.32;2.70;;;23.10;96.80;;;;;;4976827;28;20026;-88
2023/07/14 12:38:11;;;;;;;10.68;2.70;;;23.10;95.00;;;;;;4961608;28;20027;-88
2023/07/14 12:40:38;;;;;;;5.45;2.15;;;23.10;95.10;;;;;;4994205;28;20046;-88
2023/07/14 12:43:07;;;;;;;7.60;2.55;;;23.20;94.70;;;;;;4977396;28;20031;-88
2023/07/14 12:45:36;;;;;;;5.68;2.30;;;23.20;94.60;;;;;;4976822;28;20022;-88
2023/07/14 12:48:17;;;;;;;4.55;2.15;;;23.30;94.80;;;;;;4960699;28;20031;-87
2023/07/14 12:50:44;;;;;;;4.95;2.40;;;23.30;94.30;;;;;;4961117;28;20038;-87
2023/07/14 12:53:15;;;;;;;5.32;2.38;;;23.40;94.50;;;;;;4976717;28;20042;-87
2023/07/14 12:55:42;;;;;;;5.95;2.58;;;23.50;94.70;;;;;;4976907;28;20018;-88
2023/07/14 12:58:24;;;;;;;6.32;2.45;;;23.50;94.40;;;;;;4976767;28;20026;-88
2023/07/14 13:00:57;;;;;;;7.35;3.00;;;23.60;94.70;;;;;;4960582;28;20026;-88
2023/07/14 13:03:24;;;;;;;5.38;2.60;;;23.70;94.70;;;;;;4976502;28;20044;-88
2023/07/14 13:05:51;;;;;;;4.53;2.78;;;23.70;94.10;;;;;;4976520;28;20049;-88
2023/07/14 13:08:27;;;;;;;4.82;2.47;;;23.70;94.10;;;;;;4976505;28;20030;-88